Time;durP1;ratioP1;P1;durP2;ratioP2;P2;SDS_P1;SDS_P2;PMS_P1;PMS_P2;Temp;Humidity;BMP_temperature;BMP_pressure;BME280_temperature;BME280_humidity;BME280_pressure;Samples;Min_cycle;Max_cycle;Signal;HPM_P1;HPM_P2
2022/10/04 00:02:19;;;;;;;;;;;18.50;99.90;;;;;;4915744;29;20013;-69
2022/10/04 00:05:02;;;;;;;;;;;18.60;99.90;;;;;;4916082;29;19915;-72
2022/10/04 00:07:43;;;;;;;;;;;18.50;99.90;;;;;;4926652;29;19919;-68
2022/10/04 00:10:25;;;;;;;;;;;18.50;99.90;;;;;;4934803;29;19915;-70
2022/10/04 00:12:55;;;;;;;;;;;18.40;99.90;;;;;;4936691;29;19915;-68
2022/10/04 00:15:29;;;;;;;;;;;18.50;99.90;;;;;;4938569;29;19915;-72
2022/10/04 00:18:02;;;;;;;;;;;18.80;99.90;;;;;;4938514;29;19997;-74
2022/10/04 00:20:57;;;;;;;;;;;18.90;99.90;;;;;;4938589;29;19919;-74
2022/10/04 00:23:24;;;;;;;;;;;19.10;99.90;;;;;;4911810;29;20382;-73
2022/10/04 00:26:00;;;;;;;;;;;19.20;99.90;;;;;;4919423;29;19963;-71
2022/10/04 00:28:29;;;;;;;;;;;19.30;99.90;;;;;;4919691;29;20026;-71
2022/10/04 00:31:09;;;;;;;;;;;19.30;99.90;;;;;;4919250;29;20002;-73
2022/10/04 00:33:40;;;;;;;;;;;19.50;99.90;;;;;;4919417;29;19912;-74
2022/10/04 00:36:25;;;;;;;;;;;19.40;99.90;;;;;;4918836;29;20386;-73
2022/10/04 00:39:04;;;;;;;;;;;19.40;99.90;;;;;;4917796;29;19953;-70
2022/10/04 00:41:37;;;;;;;;;;;19.30;99.90;;;;;;4919152;29;20394;-69
2022/10/04 00:44:05;;;;;;;;;;;19.30;99.90;;;;;;4919346;29;19922;-67
2022/10/04 00:46:33;;;;;;;;;;;19.30;99.90;;;;;;4931306;29;19914;-70
2022/10/04 00:49:06;;;;;;;;;;;19.50;99.90;;;;;;4938020;29;20362;-69
2022/10/04 00:51:48;;;;;;;;;;;19.70;99.90;;;;;;4937944;29;19915;-69
2022/10/04 00:54:21;;;;;;;;;;;19.90;99.90;;;;;;4937535;29;19939;-66
2022/10/04 00:56:51;;;;;;;;;;;20.10;99.90;;;;;;4936454;29;20282;-69
2022/10/04 00:59:29;;;;;;;;;;;20.40;99.90;;;;;;4937488;29;19914;-67
2022/10/04 01:01:58;;;;;;;;;;;21.10;99.90;;;;;;4937683;29;20370;-68
2022/10/04 01:04:51;;;;;;;;;;;21.20;99.90;;;;;;4937366;29;19952;-67
2022/10/04 01:07:22;;;;;;;;;;;21.00;99.90;;;;;;4913577;29;20017;-67
2022/10/04 01:09:52;;;;;;;;;;;20.80;99.90;;;;;;4937588;29;20341;-68
2022/10/04 01:12:34;;;;;;;;;;;21.00;99.90;;;;;;4937918;29;19919;-68
2022/10/04 01:15:06;;;;;;;;;;;21.50;99.90;;;;;;4946327;29;19917;-66
2022/10/04 01:17:33;;;;;;;;;;;21.70;99.90;;;;;;4939125;29;19919;-67
2022/10/04 01:19:59;;;;;;;;;;;21.60;99.90;;;;;;4937478;29;19919;-66
2022/10/04 01:22:43;;;;;;;;;;;21.40;99.90;;;;;;4937075;29;19911;-67
2022/10/04 01:25:11;;;;;;;;;;;21.30;99.90;;;;;;4936901;29;19910;-68
2022/10/04 01:27:42;;;;;;;;;;;21.40;99.90;;;;;;4936884;29;19915;-69
2022/10/04 01:30:13;;;;;;;;;;;21.10;99.90;;;;;;4937027;29;20298;-64
2022/10/04 01:32:39;;;;;;;;;;;21.10;99.90;;;;;;4937235;29;20363;-63
2022/10/04 01:35:08;;;;;;;;;;;21.00;99.90;;;;;;4936853;29;19965;-65
2022/10/04 01:37:35;;;;;;;;;;;20.80;99.90;;;;;;4935720;29;20326;-67
2022/10/04 01:40:02;;;;;;;;;;;20.70;99.90;;;;;;4936309;29;19962;-67
2022/10/04 01:42:34;;;;;;;;;;;20.70;99.90;;;;;;4936955;29;20370;-70
2022/10/04 01:45:19;;;;;;;;;;;20.70;99.90;;;;;;4935426;29;19926;-67
2022/10/04 01:47:52;;;;;;;;;;;20.50;99.90;;;;;;4936442;29;19919;-67
2022/10/04 01:50:35;;;;;;;;;;;20.50;99.90;;;;;;4935679;29;20017;-67
2022/10/04 01:53:16;;;;;;;;;;;20.50;99.90;;;;;;4936551;29;19978;-67
2022/10/04 01:55:45;;;;;;;;;;;20.50;99.90;;;;;;4936013;29;19948;-67
2022/10/04 01:58:20;;;;;;;;;;;20.70;99.90;;;;;;4935787;29;19915;-67
2022/10/04 02:00:50;;;;;;;;;;;20.50;99.90;;;;;;4936383;29;19911;-69
2022/10/04 02:03:19;;;;;;;;;;;20.50;99.90;;;;;;4936435;29;20386;-69
2022/10/04 02:05:52;;;;;;;;;;;20.40;99.90;;;;;;4936028;29;20351;-69
2022/10/04 02:08:23;;;;;;;;;;;20.30;99.90;;;;;;4936571;29;19930;-67
2022/10/04 02:10:51;;;;;;;;;;;20.40;99.90;;;;;;4936212;29;20551;-70
2022/10/04 02:13:18;;;;;;;;;;;20.60;99.90;;;;;;4936015;29;19954;-70
2022/10/04 02:15:45;;;;;;;;;;;20.50;99.90;;;;;;4934799;29;19952;-70
2022/10/04 02:18:17;;;;;;;;;;;20.50;99.90;;;;;;4936152;29;19915;-74
2022/10/04 02:20:45;;;;;;;;;;;20.50;99.90;;;;;;4936358;29;19953;-71
2022/10/04 02:23:12;;;;;;;;;;;20.30;99.90;;;;;;4936389;29;20006;-71
2022/10/04 02:25:39;;;;;;;;;;;20.30;99.90;;;;;;4931750;29;20637;-70
2022/10/04 02:28:09;;;;;;;;;;;20.30;99.90;;;;;;4915905;29;19945;-72
2022/10/04 02:30:37;;;;;;;;;;;20.40;99.90;;;;;;4915837;29;19919;-68
2022/10/04 02:33:04;;;;;;;;;;;20.50;99.90;;;;;;4917461;29;19969;-73
2022/10/04 02:35:37;;;;;;;;;;;20.50;99.90;;;;;;4915508;29;19922;-69
2022/10/04 02:38:08;;;;;;;;;;;20.30;99.90;;;;;;4935018;29;19911;-70
2022/10/04 02:40:39;;;;;;;;;;;20.30;99.90;;;;;;4935847;29;19915;-71
2022/10/04 02:43:15;;;;;;;;;;;20.30;99.90;;;;;;4935617;29;19946;-74
2022/10/04 02:45:45;;;;;;;;;;;20.20;99.90;;;;;;4935871;29;19914;-69
2022/10/04 02:48:41;;;;;;;;;;;20.20;99.90;;;;;;4937104;29;19923;-68
2022/10/04 02:51:19;;;;;;;;;;;20.20;99.90;;;;;;4933541;29;19921;-69
2022/10/04 02:53:50;;;;;;;;;;;20.00;99.90;;;;;;4934571;29;20359;-69
2022/10/04 02:56:17;;;;;;;;;;;20.00;99.90;;;;;;4935570;29;19945;-69
2022/10/04 02:58:44;;;;;;;;;;;20.10;99.90;;;;;;4935730;29;19910;-72
2022/10/04 03:01:33;;;;;;;;;;;20.10;99.90;;;;;;4935147;29;19918;-72
2022/10/04 03:04:01;;;;;;;;;;;20.20;99.90;;;;;;4907526;29;19915;-68
2022/10/04 03:06:31;;;;;;;;;;;20.20;99.90;;;;;;4922835;29;19915;-67
2022/10/04 03:09:02;;;;;;;;;;;20.10;99.90;;;;;;4915076;29;19926;-69
2022/10/04 03:11:30;;;;;;;;;;;20.10;99.90;;;;;;4915998;29;20030;-68
2022/10/04 03:13:58;;;;;;;;;;;20.10;99.90;;;;;;4915582;29;19958;-74
2022/10/04 03:16:25;;;;;;;;;;;20.20;99.90;;;;;;4915388;29;20286;-72
2022/10/04 03:18:56;;;;;;;;;;;20.10;99.90;;;;;;4915869;29;19912;-72
2022/10/04 03:21:24;;;;;;;;;;;20.00;99.90;;;;;;4927469;29;19919;-72
2022/10/04 03:23:51;;;;;;;;;;;20.00;99.90;;;;;;4934033;29;20006;-74
2022/10/04 03:26:21;;;;;;;;;;;20.00;99.90;;;;;;4934356;29;20286;-74
2022/10/04 03:28:47;;;;;;;;;;;20.10;99.90;;;;;;4934651;29;19958;-73
2022/10/04 03:31:15;;;;;;;;;;;20.10;99.90;;;;;;4934087;29;19922;-72
2022/10/04 03:33:43;;;;;;;;;;;20.10;99.90;;;;;;4934572;29;19966;-73
2022/10/04 03:36:13;;;;;;;;;;;20.10;99.90;;;;;;4934015;29;19915;-70
2022/10/04 03:38:40;;;;;;;;;;;20.10;99.90;;;;;;4934220;29;20239;-70
2022/10/04 03:41:09;;;;;;;;;;;20.10;99.90;;;;;;4934148;29;19910;-75
2022/10/04 03:43:40;;;;;;;;;;;20.10;99.90;;;;;;4934275;29;20013;-70
2022/10/04 03:46:07;;;;;;;;;;;20.10;99.90;;;;;;4931829;29;19945;-72
2022/10/04 03:48:36;;;;;;;;;;;20.20;99.90;;;;;;4933155;29;20001;-71
2022/10/04 03:51:04;;;;;;;;;;;20.20;99.90;;;;;;4934025;29;19911;-69
2022/10/04 03:53:35;;;;;;;;;;;20.10;99.90;;;;;;4933752;29;19950;-71
2022/10/04 03:56:03;;;;;;;;;;;20.10;99.90;;;;;;4934016;29;19966;-74
2022/10/04 03:58:32;;;;;;;;;;;20.10;99.90;;;;;;4933616;29;20390;-73
2022/10/04 04:01:13;;;;;;;;;;;20.10;99.90;;;;;;4812665;29;3549121;-71
2022/10/04 04:03:59;;;;;;;;;;;20.20;99.90;;;;;;4934976;29;19927;-70
2022/10/04 04:06:29;;;;;;;;;;;20.20;99.90;;;;;;4934276;29;20005;-73
2022/10/04 04:08:57;;;;;;;;;;;20.20;99.90;;;;;;4934655;29;19923;-72
2022/10/04 04:11:27;;;;;;;;;;;20.20;99.90;;;;;;4933453;29;19999;-71
2022/10/04 04:14:07;;;;;;;;;;;20.10;99.90;;;;;;4934307;29;19915;-72
2022/10/04 04:16:33;;;;;;;;;;;20.10;99.90;;;;;;4934497;29;20355;-68
2022/10/04 04:19:02;;;;;;;;;;;20.10;99.90;;;;;;4935181;29;19925;-67
2022/10/04 04:21:29;;;;;;;;;;;20.10;99.90;;;;;;4943411;29;19915;-66
2022/10/04 04:24:01;;;;;;;;;;;20.20;99.90;;;;;;4943462;29;19911;-68
2022/10/04 04:26:28;;;;;;;;;;;20.20;99.90;;;;;;4921191;29;19937;-69
2022/10/04 04:28:57;;;;;;;;;;;20.20;99.90;;;;;;4917595;29;19927;-71
2022/10/04 04:31:29;;;;;;;;;;;20.20;99.90;;;;;;4915880;29;19919;-70
2022/10/04 04:33:59;;;;;;;;;;;20.10;99.90;;;;;;4915398;29;19923;-72
2022/10/04 04:36:28;;;;;;;;;;;20.10;99.90;;;;;;4915517;29;19915;-74
2022/10/04 04:41:50;;;;;;;;;;;20.00;99.90;;;;;;4916301;29;19971;-68
2022/10/04 04:44:17;;;;;;;;;;;19.90;99.90;;;;;;4915662;29;19911;-68
2022/10/04 04:46:45;;;;;;;;;;;19.80;99.90;;;;;;4929371;29;20260;-69
2022/10/04 04:49:15;;;;;;;;;;;19.80;99.90;;;;;;4934225;29;19919;-70
2022/10/04 04:51:45;;;;;;;;;;;19.90;99.90;;;;;;4934535;29;20446;-75
2022/10/04 04:54:12;;;;;;;;;;;19.80;99.90;;;;;;4934374;29;20326;-74
2022/10/04 04:56:40;;;;;;;;;;;19.90;99.90;;;;;;4934499;29;19997;-75
2022/10/04 04:59:07;;;;;;;;;;;19.80;99.90;;;;;;4936758;29;19911;-72
2022/10/04 05:01:45;;;;;;;;;;;19.80;99.90;;;;;;4937972;29;20040;-72
2022/10/04 05:04:11;;;;;;;;;;;19.80;99.90;;;;;;4937849;29;20174;-72
2022/10/04 05:06:42;;;;;;;;;;;19.90;99.90;;;;;;4936900;29;20445;-68
2022/10/04 05:09:24;;;;;;;;;;;19.80;99.90;;;;;;4937698;29;19954;-74
2022/10/04 05:11:52;;;;;;;;;;;19.70;99.90;;;;;;4937786;29;20377;-76
2022/10/04 05:14:20;;;;;;;;;;;19.70;99.90;;;;;;4937759;29;19965;-68
2022/10/04 05:16:51;;;;;;;;;;;19.70;99.90;;;;;;4936233;29;19970;-70
2022/10/04 05:19:23;;;;;;;;;;;19.60;99.90;;;;;;4936514;29;20080;-70
2022/10/04 05:21:52;;;;;;;;;;;19.50;99.90;;;;;;4937548;29;19915;-74
2022/10/04 05:24:23;;;;;;;;;;;19.50;99.90;;;;;;4937365;29;19917;-72
2022/10/04 05:27:00;;;;;;;;;;;19.40;99.90;;;;;;4937069;29;20396;-74
2022/10/04 05:29:31;;;;;;;;;;;19.40;99.90;;;;;;4937560;29;19919;-68
2022/10/04 05:31:57;;;;;;;;;;;19.40;99.90;;;;;;4937554;29;19912;-74
2022/10/04 05:34:29;;;;;;;;;;;19.30;99.90;;;;;;4936084;29;19918;-74
2022/10/04 05:37:02;;;;;;;;;;;19.20;99.90;;;;;;4943480;29;19934;-73
2022/10/04 05:39:31;;;;;;;;;;;19.10;99.90;;;;;;4948787;29;19915;-73
2022/10/04 05:42:05;;;;;;;;;;;19.10;99.90;;;;;;4950927;29;19914;-71
2022/10/04 05:44:36;;;;;;;;;;;19.10;99.90;;;;;;4950864;29;19953;-75
2022/10/04 05:47:06;;;;;;;;;;;19.10;99.90;;;;;;4947608;29;19921;-73
2022/10/04 05:49:37;;;;;;;;;;;19.00;99.90;;;;;;4949641;29;19954;-72
2022/10/04 05:52:12;;;;;;;;;;;19.00;99.90;;;;;;4946367;29;19911;-72
2022/10/04 05:54:39;;;;;;;;;;;18.90;99.90;;;;;;4936742;29;19918;-71
2022/10/04 05:57:11;;;;;;;;;;;18.80;99.90;;;;;;4946299;29;19983;-68
2022/10/04 05:59:38;;;;;;;;;;;18.70;99.90;;;;;;4946055;29;19991;-74
2022/10/04 06:02:26;;;;;;;;;;;18.70;99.90;;;;;;4935990;29;20287;-70
2022/10/04 06:04:58;;;;;;;;;;;18.70;99.90;;;;;;4935234;29;19921;-74
2022/10/04 06:07:25;;;;;;;;;;;18.70;99.90;;;;;;4933360;29;19934;-75
2022/10/04 06:10:15;;;;;;;;;;;18.60;99.90;;;;;;4933978;29;19958;-71
2022/10/04 06:12:48;;;;;;;;;;;18.60;99.90;;;;;;4933701;29;19962;-74
2022/10/04 06:15:26;;;;;;;;;;;18.50;99.90;;;;;;4933219;29;19915;-70
2022/10/04 06:18:15;;;;;;;;;;;18.50;99.90;;;;;;4934298;29;19911;-74
2022/10/04 06:20:49;;;;;;;;;;;18.40;99.90;;;;;;4934532;29;19922;-74
2022/10/04 06:23:20;;;;;;;;;;;18.50;99.90;;;;;;4934360;29;20259;-73
2022/10/04 06:25:52;;;;;;;;;;;18.50;99.90;;;;;;4934374;29;19911;-72
2022/10/04 06:28:26;;;;;;;;;;;18.60;99.90;;;;;;4934659;29;19919;-72
2022/10/04 06:31:11;;;;;;;;;;;18.50;99.90;;;;;;4933133;29;19918;-71
2022/10/04 06:33:38;;;;;;;;;;;18.50;99.90;;;;;;4934366;29;19917;-73
2022/10/04 06:36:21;;;;;;;;;;;18.50;99.90;;;;;;4934045;29;19918;-71
2022/10/04 06:39:02;;;;;;;;;;;18.40;99.90;;;;;;4934126;29;19921;-73
2022/10/04 06:41:28;;;;;;;;;;;18.40;99.90;;;;;;4934533;29;19911;-71
2022/10/04 06:43:56;;;;;;;;;;;18.40;99.90;;;;;;4928748;29;20017;-73
2022/10/04 06:46:37;;;;;;;;;;;18.40;99.90;;;;;;4925969;29;20277;-74
2022/10/04 06:49:22;;;;;;;;;;;18.40;99.90;;;;;;4933919;29;19954;-75
2022/10/04 06:51:51;;;;;;;;;;;18.40;99.90;;;;;;4933970;29;19915;-70
2022/10/04 06:54:20;;;;;;;;;;;18.30;99.90;;;;;;4932894;29;20793;-72
2022/10/04 06:56:58;;;;;;;;;;;18.20;99.90;;;;;;4933245;29;20366;-74
2022/10/04 06:59:44;;;;;;;;;;;18.20;99.90;;;;;;4933675;29;19942;-74
2022/10/04 07:02:24;;;;;;;;;;;18.20;99.90;;;;;;4932374;29;19923;-75
2022/10/04 07:05:13;;;;;;;;;;;18.10;99.90;;;;;;4933801;29;20318;-72
2022/10/04 07:07:46;;;;;;;;;;;18.10;99.90;;;;;;4925613;29;19930;-73
2022/10/04 07:10:12;;;;;;;;;;;18.10;99.90;;;;;;4933157;29;19914;-76
2022/10/04 07:12:40;;;;;;;;;;;18.10;99.90;;;;;;4933914;29;19915;-72
2022/10/04 07:15:18;;;;;;;;;;;18.10;99.90;;;;;;4931834;29;19914;-73
2022/10/04 07:17:46;;;;;;;;;;;18.10;99.90;;;;;;4933515;29;19911;-74
2022/10/04 07:20:33;;;;;;;;;;;18.00;99.90;;;;;;4933499;29;19954;-69
2022/10/04 07:23:02;;;;;;;;;;;18.00;99.90;;;;;;4932522;29;19921;-72
2022/10/04 07:25:50;;;;;;;;;;;18.00;99.90;;;;;;4933272;29;19914;-73
2022/10/04 07:31:09;;;;;;;;;;;17.90;99.90;;;;;;4947389;29;19918;-74
2022/10/04 07:33:42;;;;;;;;;;;18.00;99.90;;;;;;4941013;29;19998;-75
2022/10/04 07:36:14;;;;;;;;;;;17.90;99.90;;;;;;4932808;29;19919;-72
2022/10/04 07:38:48;;;;;;;;;;;17.90;99.90;;;;;;4933257;29;19915;-74
2022/10/04 07:41:17;;;;;;;;;;;17.90;99.90;;;;;;4933079;29;19910;-71
2022/10/04 07:44:03;;;;;;;;;;;17.90;99.90;;;;;;4933361;29;19933;-73
2022/10/04 07:46:52;;;;;;;;;;;17.90;99.90;;;;;;4932821;29;19918;-69
2022/10/04 07:49:20;;;;;;;;;;;17.90;99.90;;;;;;4917179;29;20375;-73
2022/10/04 07:51:50;;;;;;;;;;;17.80;99.90;;;;;;4933132;29;19914;-74
2022/10/04 07:54:32;;;;;;;;;;;17.80;99.90;;;;;;4931661;29;19919;-72
2022/10/04 07:57:13;;;;;;;;;;;17.80;99.90;;;;;;4932195;29;20298;-74
2022/10/04 07:59:47;;;;;;;;;;;17.80;99.90;;;;;;4933141;29;20382;-71
2022/10/04 08:02:32;;;;;;;;;;;17.70;99.90;;;;;;4931054;29;20331;-71
2022/10/04 08:05:15;;;;;;;;;;;17.70;99.90;;;;;;4932284;29;19922;-67
2022/10/04 08:08:00;;;;;;;;;;;17.70;99.90;;;;;;4931225;29;20050;-69
2022/10/04 08:10:27;;;;;;;;;;;17.60;99.90;;;;;;4918743;29;19922;-71
2022/10/04 08:13:12;;;;;;;;;;;17.60;99.90;;;;;;4915770;29;20379;-74
2022/10/04 08:15:40;;;;;;;;;;;17.70;99.90;;;;;;4914978;29;19947;-72
2022/10/04 08:18:21;;;;;;;;;;;17.60;99.90;;;;;;4915868;29;20379;-74
2022/10/04 08:20:58;;;;;;;;;;;17.60;99.90;;;;;;4915909;29;19922;-70
2022/10/04 08:23:34;;;;;;;;;;;17.60;99.90;;;;;;4915672;29;20384;-73
2022/10/04 08:26:18;;;;;;;;;;;17.60;99.90;;;;;;4915484;29;20279;-73
2022/10/04 08:31:51;;;;;;;;;;;17.50;99.90;;;;;;4915809;29;19962;-69
2022/10/04 08:34:31;;;;;;;;;;;17.50;99.90;;;;;;4918159;29;20298;-74
2022/10/04 08:37:27;;;;;;;;;;;17.50;99.90;;;;;;4919028;29;20394;-75
2022/10/04 08:39:59;;;;;;;;;;;17.50;99.90;;;;;;4910872;29;20009;-75
2022/10/04 08:42:44;;;;;;;;;;;17.50;99.90;;;;;;4919556;29;19911;-75
2022/10/04 08:45:31;;;;;;;;;;;17.40;99.90;;;;;;4920483;29;19962;-76
2022/10/04 08:47:57;;;;;;;;;;;17.50;99.90;;;;;;4935911;29;20628;-71
2022/10/04 08:50:47;;;;;;;;;;;17.40;99.90;;;;;;4930067;29;20370;-78
2022/10/04 08:53:38;;;;;;;;;;;17.40;99.90;;;;;;4925951;29;19922;-74
2022/10/04 08:56:17;;;;;;;;;;;17.40;99.90;;;;;;4910398;29;19923;-75
2022/10/04 08:58:44;;;;;;;;;;;17.40;99.90;;;;;;4911330;29;19915;-70
2022/10/04 09:01:33;;;;;;;;;;;17.40;99.90;;;;;;4910811;29;19927;-73
2022/10/04 09:04:26;;;;;;;;;;;17.40;99.90;;;;;;4888421;29;19919;-75
2022/10/04 09:07:09;;;;;;;;;;;17.40;99.90;;;;;;4921396;29;19915;-74
2022/10/04 09:09:54;;;;;;;;;;;17.40;99.90;;;;;;4926478;29;20382;-68
2022/10/04 09:12:40;;;;;;;;;;;17.40;99.90;;;;;;4929550;29;19915;-74
2022/10/04 09:15:32;;;;;;;;;;;17.40;99.90;;;;;;4928883;29;20430;-69
2022/10/04 09:18:02;;;;;;;;;;;17.40;99.90;;;;;;4928436;29;19926;-72
2022/10/04 09:20:34;;;;;;;;;;;17.30;99.90;;;;;;4928826;29;20573;-75
2022/10/04 09:23:20;;;;;;;;;;;17.30;99.90;;;;;;4929412;29;19970;-75
2022/10/04 09:26:09;;;;;;;;;;;17.30;99.90;;;;;;4929224;29;19921;-73
2022/10/04 09:28:42;;;;;;;;;;;17.30;99.90;;;;;;4929213;29;19923;-74
2022/10/04 09:31:14;;;;;;;;;;;17.30;99.90;;;;;;4929223;29;19986;-73
2022/10/04 09:33:41;;;;;;;;;;;17.40;99.90;;;;;;4928884;29;19914;-73
2022/10/04 09:36:17;;;;;;;;;;;17.30;99.90;;;;;;4927799;29;19922;-74
2022/10/04 09:38:49;;;;;;;;;;;17.30;99.90;;;;;;4929321;29;19919;-77
2022/10/04 09:41:34;;;;;;;;;;;17.30;99.90;;;;;;4928700;29;20438;-73
2022/10/04 09:44:19;;;;;;;;;;;17.30;99.90;;;;;;4929022;29;19914;-74
2022/10/04 09:47:04;;;;;;;;;;;17.40;99.90;;;;;;4928971;29;19914;-78
2022/10/04 09:49:36;;;;;;;;;;;17.30;99.90;;;;;;4928121;29;19933;-74
2022/10/04 09:52:11;;;;;;;;;;;17.40;99.90;;;;;;4929030;29;19915;-75
2022/10/04 09:54:50;;;;;;;;;;;17.30;99.90;;;;;;4928529;29;19915;-74
2022/10/04 09:57:55;;;;;;;;;;;17.40;99.90;;;;;;4928434;29;19926;-75
2022/10/04 10:00:23;;;;;;;;;;;17.40;99.90;;;;;;4868887;29;20060;-71
2022/10/04 10:02:55;;;;;;;;;;;17.40;99.90;;;;;;4867900;29;20048;-76
2022/10/04 10:05:41;;;;;;;;;;;17.40;99.90;;;;;;4899483;29;19925;-72
2022/10/04 10:08:24;;;;;;;;;;;17.40;99.90;;;;;;4928178;29;19930;-77
2022/10/04 10:13:39;;;;;;;;;;;17.40;99.90;;;;;;4928680;29;20036;-75
2022/10/04 10:16:20;;;;;;;;;;;17.40;99.90;;;;;;4927037;29;20450;-73
2022/10/04 10:18:47;;;;;;;;;;;17.30;99.90;;;;;;4928402;29;19919;-75
2022/10/04 10:21:17;;;;;;;;;;;17.40;99.90;;;;;;4927202;29;19915;-71
2022/10/04 10:23:55;;;;;;;;;;;17.40;99.90;;;;;;4928755;29;19957;-75
2022/10/04 10:26:31;;;;;;;;;;;17.40;99.90;;;;;;4928307;29;20296;-77
2022/10/04 10:29:07;;;;;;;;;;;17.30;99.90;;;;;;4927864;29;19922;-70
2022/10/04 10:31:53;;;;;;;;;;;17.40;99.90;;;;;;4908967;29;20661;-76
2022/10/04 10:34:33;;;;;;;;;;;17.40;99.90;;;;;;4909067;29;20401;-73
2022/10/04 10:36:59;;;;;;;;;;;17.40;99.90;;;;;;4909297;29;19919;-75
2022/10/04 10:39:44;;;;;;;;;;;17.40;99.90;;;;;;4920571;29;19922;-68
2022/10/04 10:42:11;;;;;;;;;;;17.30;99.90;;;;;;4922013;29;20773;-76
2022/10/04 10:44:45;;;;;;;;;;;17.30;99.90;;;;;;4916856;29;19922;-74
2022/10/04 10:47:11;;;;;;;;;;;17.30;99.90;;;;;;4926967;29;20034;-72
2022/10/04 10:50:04;;;;;;;;;;;17.40;99.90;;;;;;4927714;29;19922;-75
2022/10/04 10:52:36;;;;;;;;;;;17.30;99.90;;;;;;4927782;29;19922;-75
2022/10/04 10:55:06;;;;;;;;;;;17.30;99.90;;;;;;4927479;29;20665;-74
2022/10/04 10:58:08;;;;;;;;;;;17.30;99.90;;;;;;4928675;29;19915;-72
2022/10/04 11:00:40;;;;;;;;;;;17.30;99.90;;;;;;4869688;29;19922;-70
2022/10/04 11:03:28;;;;;;;;;;;17.30;99.90;;;;;;4902206;29;19998;-69
2022/10/04 11:06:00;;;;;;;;;;;17.30;99.90;;;;;;4908654;29;19919;-70
2022/10/04 11:08:44;;;;;;;;;;;17.30;99.90;;;;;;4908906;29;19974;-73
2022/10/04 11:11:19;;;;;;;;;;;17.30;99.90;;;;;;4908442;29;20355;-72
2022/10/04 11:13:58;;;;;;;;;;;17.30;99.90;;;;;;4912121;29;19974;-71
2022/10/04 11:16:46;;;;;;;;;;;17.30;99.90;;;;;;4927051;29;19962;-70
2022/10/04 11:19:28;;;;;;;;;;;17.20;99.90;;;;;;4929181;29;20400;-70
2022/10/04 11:22:06;;;;;;;;;;;17.20;99.90;;;;;;4929926;29;20293;-72
2022/10/04 11:24:33;;;;;;;;;;;17.20;99.90;;;;;;4927094;29;19957;-75
2022/10/04 11:27:18;;;;;;;;;;;17.20;99.90;;;;;;4927230;29;19926;-69
2022/10/04 11:29:47;;;;;;;;;;;17.20;99.90;;;;;;4912883;29;20724;-73
2022/10/04 11:32:34;;;;;;;;;;;17.20;99.90;;;;;;4908018;29;19950;-73
2022/10/04 11:35:10;;;;;;;;;;;17.20;99.90;;;;;;4887674;29;20014;-75
2022/10/04 11:37:54;;;;;;;;;;;17.20;99.90;;;;;;4907930;29;19915;-74
2022/10/04 11:40:33;;;;;;;;;;;17.10;99.90;;;;;;4907963;29;19922;-71
2022/10/04 11:43:00;;;;;;;;;;;17.20;99.90;;;;;;4907609;29;19923;-77
2022/10/04 11:45:45;;;;;;;;;;;17.20;99.90;;;;;;4911770;29;19919;-73
2022/10/04 11:48:21;;;;;;;;;;;17.20;99.90;;;;;;4926980;29;19922;-71
2022/10/04 11:50:56;;;;;;;;;;;17.20;99.90;;;;;;4926734;29;19922;-69
2022/10/04 11:53:29;;;;;;;;;;;17.20;99.90;;;;;;4926642;29;20378;-69
2022/10/04 11:56:02;;;;;;;;;;;17.20;99.90;;;;;;4926351;29;19970;-74
2022/10/04 11:58:32;;;;;;;;;;;17.10;99.90;;;;;;4926261;29;20021;-71
2022/10/04 12:01:13;;;;;;;;;;;17.10;99.90;;;;;;4926060;29;19946;-75
2022/10/04 12:03:49;;;;;;;;;;;17.20;99.90;;;;;;4927276;29;19915;-74
2022/10/04 12:06:21;;;;;;;;;;;17.10;99.90;;;;;;4927773;29;19915;-70
2022/10/04 12:08:57;;;;;;;;;;;17.20;99.90;;;;;;4930223;29;19978;-70
2022/10/04 12:14:50;;;;;;;;;;;17.20;99.90;;;;;;4937074;29;19982;-68
2022/10/04 12:17:20;;;;;;;;;;;17.20;99.90;;;;;;4927200;29;19934;-69
2022/10/04 12:20:05;;;;;;;;;;;17.20;99.90;;;;;;4931507;29;19969;-72
2022/10/04 12:22:46;;;;;;;;;;;17.20;99.90;;;;;;4930222;29;19915;-75
2022/10/04 12:25:28;;;;;;;;;;;17.20;99.90;;;;;;4930045;29;19921;-69
2022/10/04 12:28:27;;;;;;;;;;;17.20;99.90;;;;;;4929887;29;19927;-74
2022/10/04 12:31:03;;;;;;;;;;;17.20;99.90;;;;;;4897268;29;19915;-73
2022/10/04 12:33:34;;;;;;;;;;;17.20;99.90;;;;;;4933795;29;19915;-69
2022/10/04 12:36:19;;;;;;;;;;;17.20;99.90;;;;;;4937966;29;20366;-68
2022/10/04 12:39:13;;;;;;;;;;;17.20;99.90;;;;;;4937995;29;19911;-66
2022/10/04 12:41:58;;;;;;;;;;;17.20;99.90;;;;;;4937953;29;19915;-66
2022/10/04 12:44:24;;;;;;;;;;;17.20;99.90;;;;;;4918942;29;19915;-67
2022/10/04 12:47:14;;;;;;;;;;;17.20;99.90;;;;;;4933870;29;19958;-66
2022/10/04 12:49:48;;;;;;;;;;;17.20;99.90;;;;;;4937845;29;20362;-69
2022/10/04 12:52:20;;;;;;;;;;;17.20;99.90;;;;;;4937713;29;20014;-67
2022/10/04 12:54:52;;;;;;;;;;;17.20;99.90;;;;;;4937762;29;19911;-69
2022/10/04 12:57:30;;;;;;;;;;;17.20;99.90;;;;;;4937755;29;19993;-69
2022/10/04 12:59:56;;;;;;;;;;;17.20;99.90;;;;;;4936805;29;19911;-70
2022/10/04 13:02:38;;;;;;;;;;;17.20;99.90;;;;;;4937661;29;20425;-67
2022/10/04 13:05:23;;;;;;;;;;;17.20;99.90;;;;;;4937361;29;20421;-68
2022/10/04 13:08:08;;;;;;;;;;;17.20;99.90;;;;;;4936155;29;20409;-67
2022/10/04 13:10:55;;;;;;;;;;;17.20;99.90;;;;;;4937576;29;19961;-72
2022/10/04 13:13:37;;;;;;;;;;;17.20;99.90;;;;;;4937031;29;19911;-69
2022/10/04 13:16:11;;;;;;;;;;;17.20;99.90;;;;;;4937409;29;20362;-66
2022/10/04 13:18:46;;;;;;;;;;;17.10;99.90;;;;;;4937980;29;19911;-68
2022/10/04 13:21:36;;;;;;;;;;;17.10;99.90;;;;;;4937503;29;20441;-69
2022/10/04 13:24:04;;;;;;;;;;;17.10;99.90;;;;;;4928936;29;19911;-70
2022/10/04 13:26:38;;;;;;;;;;;17.10;99.90;;;;;;4937099;29;19911;-66
2022/10/04 13:29:20;;;;;;;;;;;17.10;99.90;;;;;;4937156;29;19935;-73
2022/10/04 13:32:10;;;;;;;;;;;17.10;99.90;;;;;;4937525;29;19911;-68
2022/10/04 13:34:52;;;;;;;;;;;17.10;99.90;;;;;;4936975;29;19970;-67
2022/10/04 13:37:27;;;;;;;;;;;17.00;99.90;;;;;;4935596;29;20382;-73
2022/10/04 13:40:11;;;;;;;;;;;17.10;99.90;;;;;;4936926;29;20358;-70
2022/10/04 13:42:53;;;;;;;;;;;17.00;99.90;;;;;;4936759;29;19914;-68
2022/10/04 13:45:24;;;;;;;;;;;17.10;99.90;;;;;;4935987;29;19915;-69
2022/10/04 13:47:50;;;;;;;;;;;17.10;99.90;;;;;;4936870;29;19997;-67
2022/10/04 13:50:40;;;;;;;;;;;17.00;99.90;;;;;;4939630;29;19935;-67
2022/10/04 13:59:03;;;;;;;;;;;16.80;99.90;;;;;;4936567;29;19985;-75
2022/10/04 14:01:39;;;;;;;;;;;16.80;99.90;;;;;;4936557;29;19934;-70
2022/10/04 14:04:25;;;;;;;;;;;16.60;99.90;;;;;;4936687;29;20342;-75
2022/10/04 14:07:07;;;;;;;;;;;16.60;99.90;;;;;;4936461;29;20290;-73
2022/10/04 14:09:51;;;;;;;;;;;16.50;99.90;;;;;;4936696;29;20452;-74
2022/10/04 14:12:18;;;;;;;;;;;16.40;99.90;;;;;;4936761;29;19918;-71
2022/10/04 14:14:57;;;;;;;;;;;16.40;99.90;;;;;;4936390;29;19911;-73
2022/10/04 14:17:26;;;;;;;;;;;16.40;99.90;;;;;;4936598;29;19911;-74
2022/10/04 14:20:02;;;;;;;;;;;16.30;99.90;;;;;;4935916;29;19962;-75
2022/10/04 14:22:30;;;;;;;;;;;16.10;99.90;;;;;;4935323;29;19958;-72
2022/10/04 14:25:15;;;;;;;;;;;16.00;99.90;;;;;;4936314;29;20416;-73
2022/10/04 14:28:00;;;;;;;;;;;16.00;99.90;;;;;;4935977;29;20025;-67
2022/10/04 14:30:47;;;;;;;;;;;15.90;99.90;;;;;;4935593;29;19918;-73
2022/10/04 14:33:33;;;;;;;;;;;15.80;99.90;;;;;;4936015;29;19911;-71
2022/10/04 14:36:03;;;;;;;;;;;15.80;99.90;;;;;;4935934;29;19962;-76
2022/10/04 14:38:46;;;;;;;;;;;15.80;99.90;;;;;;4936355;29;19961;-72
2022/10/04 14:41:36;;;;;;;;;;;15.70;99.90;;;;;;4936083;29;19910;-75
2022/10/04 14:44:17;;;;;;;;;;;15.60;99.90;;;;;;4936456;29;19911;-73
2022/10/04 14:46:50;;;;;;;;;;;15.60;99.90;;;;;;4936121;29;19915;-71
2022/10/04 14:49:44;;;;;;;;;;;15.50;99.90;;;;;;4935558;29;19918;-74
2022/10/04 14:52:30;;;;;;;;;;;15.60;99.90;;;;;;4936077;29;20298;-71
2022/10/04 14:55:09;;;;;;;;;;;15.60;99.90;;;;;;4935611;29;20282;-70
2022/10/04 14:57:45;;;;;;;;;;;15.70;99.90;;;;;;4936057;29;19934;-71
2022/10/04 15:00:18;;;;;;;;;;;15.70;99.90;;;;;;4935909;29;20286;-74
2022/10/04 15:02:57;;;;;;;;;;;15.60;99.90;;;;;;4934531;29;20438;-74
2022/10/04 15:05:37;;;;;;;;;;;15.50;99.90;;;;;;4934573;29;19919;-68
2022/10/04 15:08:25;;;;;;;;;;;15.50;99.90;;;;;;4935172;29;19942;-69
2022/10/04 15:11:03;;;;;;;;;;;15.50;99.90;;;;;;4935549;29;19933;-72
2022/10/04 15:13:39;;;;;;;;;;;15.60;99.90;;;;;;4936617;29;20141;-72
2022/10/04 15:16:29;;;;;;;;;;;15.60;99.90;;;;;;4938054;29;19911;-69
2022/10/04 15:18:55;;;;;;;;;;;15.60;99.90;;;;;;4909277;29;19961;-72
2022/10/04 15:21:43;;;;;;;;;;;15.60;99.90;;;;;;4935518;29;19921;-70
2022/10/04 15:24:16;;;;;;;;;;;15.60;99.90;;;;;;4935867;29;19921;-73
2022/10/04 15:27:01;;;;;;;;;;;15.70;99.90;;;;;;4942971;29;20259;-68